Lamadrid, Argentina
Current Conditions -  °F | °C
As of 9:00 PM on Wednesday 28 Jan 2015 (Local Time) from SANT Reporting Station
Broken Clouds Broken Clouds  
Wind Chill: 24°   Ceiling: 10000
Heat Index: 24°   Visibility: 6mi
Dew Point: 20°   Wind: 7mph
Humidity: 78%   Direction: 230°SW
Pressure: 29.85"   Gusts: NA
Location:  27.63°S, 65.25°W
Report Text: SANT 290000Z 23006KT 9999 FEW040 FEW050CBBKN100 24/20 Q1011
Loading
Personal Weather Stations






























Interactive Weather Map New forecast layout! Learn more

10-Day Weather Forecast

Advertisements
Track Severe Weather on mobile